Time;durP1;ratioP1;P1;durP2;ratioP2;P2;SDS_P1;SDS_P2;PMS_P1;PMS_P2;Temp;Humidity;BMP_temperature;BMP_pressure;BME280_temperature;BME280_humidity;BME280_pressure;Samples;Min_cycle;Max_cycle;Signal;HPM_P1;HPM_P2
2022/12/19 00:02:00;;;;;;;15.63;8.17;;;;;;;-2.11;76.43;102279.25;6082735;28;20238;-67
2022/12/19 00:05:22;;;;;;;12.90;8.83;;;;;;;-2.16;76.70;102284.59;6074496;28;20782;-68
2022/12/19 00:08:44;;;;;;;16.07;8.43;;;;;;;-2.19;77.33;102275.84;6077695;28;20236;-69
2022/12/19 00:12:05;;;;;;;11.63;8.23;;;;;;;-2.14;76.56;102277.53;6078435;28;20327;-68
2022/12/19 00:15:26;;;;;;;10.13;6.87;;;;;;;-2.05;76.49;102276.50;6080464;28;20240;-68
2022/12/19 00:18:50;;;;;;;9.90;7.57;;;;;;;-2.16;77.33;102266.09;6078709;28;20693;-67
2022/12/19 00:22:11;;;;;;;10.87;8.93;;;;;;;-2.11;77.58;102266.03;6085622;28;20232;-68
2022/12/19 00:25:32;;;;;;;10.87;8.43;;;;;;;-2.06;76.78;102265.06;6069166;28;20237;-69
2022/12/19 00:28:55;;;;;;;8.83;7.13;;;;;;;-2.08;77.36;102251.00;6066642;28;20240;-67
2022/12/19 00:32:18;;;;;;;15.60;10.47;;;;;;;-2.09;76.57;102243.13;6055742;29;20240;-68
2022/12/19 00:35:40;;;;;;;15.63;7.13;;;;;;;-2.08;77.22;102242.22;6071869;28;20527;-68
2022/12/19 00:39:02;;;;;;;9.63;6.33;;;;;;;-2.07;76.31;102242.22;6053295;28;20237;-67
2022/12/19 00:42:23;;;;;;;11.07;7.60;;;;;;;-2.16;76.73;102231.78;6080364;28;20761;-68
2022/12/19 00:45:44;;;;;;;18.47;9.77;;;;;;;-2.12;76.66;102233.47;6080344;28;20228;-68
2022/12/19 00:49:05;;;;;;;9.13;6.53;;;;;;;-2.06;76.93;102229.84;6075366;28;20225;-68
2022/12/19 00:52:27;;;;;;;11.30;7.93;;;;;;;-2.09;76.48;102228.16;6077283;28;20228;-68
2022/12/19 00:55:51;;;;;;;10.50;7.17;;;;;;;-2.07;76.45;102234.28;6094085;28;20236;-67
2022/12/19 00:59:11;;;;;;;12.67;8.07;;;;;;;-2.09;77.05;102225.50;6085442;28;20247;-69
2022/12/19 01:02:32;;;;;;;11.60;7.37;;;;;;;-2.04;77.26;102233.34;6081452;28;20264;-67
2022/12/19 01:05:53;;;;;;;14.33;7.70;;;;;;;-1.97;76.63;102221.78;6078148;28;20523;-67
2022/12/19 01:09:16;;;;;;;12.73;7.33;;;;;;;-1.96;76.76;102223.56;6082452;28;20236;-67
2022/12/19 01:12:45;;;;;;;13.07;7.90;;;;;;;-1.88;76.97;102214.59;6085953;28;20237;-66
2022/12/19 01:16:08;;;;;;;12.20;9.03;;;;;;;-2.00;76.99;102206.84;6078145;28;20248;-66
2022/12/19 01:19:30;;;;;;;14.33;8.50;;;;;;;-2.01;77.12;102218.34;6081880;28;20558;-67
2022/12/19 01:22:50;;;;;;;11.07;6.80;;;;;;;-1.99;77.27;102213.03;6081598;28;20248;-67
2022/12/19 01:26:13;;;;;;;10.53;8.50;;;;;;;-2.10;76.45;102210.56;6095851;28;20323;-67
2022/12/19 01:29:34;;;;;;;13.97;8.07;;;;;;;-2.02;77.31;102213.94;6082125;28;20702;-67
2022/12/19 01:32:56;;;;;;;8.20;7.03;;;;;;;-1.94;76.64;102204.13;6095633;28;20232;-68
2022/12/19 01:36:17;;;;;;;12.03;8.20;;;;;;;-1.99;77.07;102200.69;6077994;28;20229;-67
2022/12/19 01:39:38;;;;;;;12.63;7.47;;;;;;;-2.01;76.51;102189.28;6076709;28;20599;-68
2022/12/19 01:43:01;;;;;;;9.43;8.10;;;;;;;-1.91;76.36;102185.59;6080249;28;20323;-67
2022/12/19 01:46:27;;;;;;;8.93;7.47;;;;;;;-2.01;77.42;102183.13;6084269;28;20232;-67
2022/12/19 01:49:48;;;;;;;10.33;7.10;;;;;;;-2.01;77.26;102185.75;6082429;28;20631;-68
2022/12/19 01:53:11;;;;;;;11.40;9.40;;;;;;;-2.02;76.89;102179.59;6097610;28;20247;-68
2022/12/19 01:56:38;;;;;;;9.93;6.83;;;;;;;-1.95;76.60;102177.72;6085752;28;20259;-67
2022/12/19 02:00:03;;;;;;;14.23;7.43;;;;;;;-1.88;76.81;102172.31;6083972;28;20225;-68
2022/12/19 02:03:37;;;;;;;13.17;8.17;;;;;;;-1.96;76.66;102166.28;6079761;28;20712;-67
2022/12/19 02:06:59;;;;;;;12.33;7.20;;;;;;;-2.01;77.40;102160.22;6073333;28;20236;-66
2022/12/19 02:10:20;;;;;;;11.73;8.20;;;;;;;-1.83;76.65;102159.91;6080757;28;20308;-67
2022/12/19 02:13:43;;;;;;;11.47;7.93;;;;;;;-1.84;77.04;102147.59;6080226;28;20236;-67
2022/12/19 02:17:14;;;;;;;9.80;6.83;;;;;;;-1.87;76.51;102137.06;6079761;28;20638;-68
2022/12/19 02:21:05;;;;;;;7.97;7.03;;;;;;;-1.86;77.30;102127.38;6088420;28;20237;-68
2022/12/19 02:24:54;;;;;;;10.03;6.50;;;;;;;-1.83;77.06;102122.03;6092737;28;20228;-67
2022/12/19 02:28:40;;;;;;;10.57;6.53;;;;;;;-1.95;77.23;102119.63;6091776;28;21689;-67
2022/12/19 02:32:07;;;;;;;12.13;7.77;;;;;;;-1.94;77.50;102114.28;6075124;28;20339;-66
2022/12/19 02:35:33;;;;;;;8.53;5.57;;;;;;;-1.83;77.71;102111.47;6081339;28;20229;-68
2022/12/19 02:38:58;;;;;;;10.40;7.97;;;;;;;-1.75;77.24;102096.34;6073366;28;20236;-67
2022/12/19 02:42:24;;;;;;;10.33;8.73;;;;;;;-1.82;78.01;102100.91;6080235;28;20232;-68
2022/12/19 02:45:47;;;;;;;9.50;7.20;;;;;;;-1.79;78.96;102099.94;6076918;28;20244;-66
2022/12/19 02:49:10;;;;;;;8.00;6.07;;;;;;;-1.76;78.83;102097.25;6084202;28;20233;-67
2022/12/19 02:52:46;;;;;;;11.53;7.47;;;;;;;-1.77;79.08;102099.00;6079018;28;20323;-68
2022/12/19 02:56:20;;;;;;;11.93;6.83;;;;;;;-1.77;79.98;102106.06;6094631;28;20394;-67
2022/12/19 03:00:01;;;;;;;12.33;7.60;;;;;;;-1.69;78.91;102109.47;6081856;28;20308;-66
2022/12/19 03:03:29;;;;;;;15.40;7.17;;;;;;;-1.63;79.89;102114.63;6086455;28;20233;-67
2022/12/19 03:06:54;;;;;;;10.07;7.40;;;;;;;-1.67;79.99;102087.38;6074051;28;20615;-67
2022/12/19 03:10:23;;;;;;;9.77;8.60;;;;;;;-1.58;80.32;102094.25;6079186;28;20229;-67
2022/12/19 03:13:49;;;;;;;9.27;6.33;;;;;;;-1.62;80.84;102077.59;6080168;28;20228;-67
2022/12/19 03:17:10;;;;;;;11.83;7.87;;;;;;;-1.42;80.04;102073.69;6078389;28;20241;-67
2022/12/19 03:20:48;;;;;;;10.83;6.10;;;;;;;-1.54;81.15;102073.94;6089002;28;20503;-68
2022/12/19 03:24:12;;;;;;;11.10;8.27;;;;;;;-1.58;82.45;102078.38;6077758;28;20240;-67
2022/12/19 03:27:37;;;;;;;11.60;7.97;;;;;;;-1.50;82.14;102054.47;6073331;28;20285;-67
2022/12/19 03:31:01;;;;;;;10.23;7.37;;;;;;;-1.51;82.40;102060.63;6074848;28;20236;-67
2022/12/19 03:34:28;;;;;;;15.43;7.40;;;;;;;-1.47;82.50;102057.03;6081036;28;20647;-67
2022/12/19 03:37:52;;;;;;;11.40;6.43;;;;;;;-1.46;82.72;102043.75;6079971;28;20245;-67
2022/12/19 03:43:07;;;;;;;11.43;8.03;;;;;;;-1.57;83.29;102043.13;6079626;28;20241;-67
2022/12/19 03:44:59;;;;;;;10.90;7.40;;;;;;;-1.59;83.91;102036.13;6077055;28;20247;-67
2022/12/19 03:48:28;;;;;;;6.63;5.97;;;;;;;-1.56;84.29;102033.44;6074405;28;20236;-66
2022/12/19 03:51:58;;;;;;;10.00;6.93;;;;;;;-1.44;83.54;102041.97;6076685;28;20232;-66
2022/12/19 03:55:23;;;;;;;12.63;6.37;;;;;;;-1.39;83.81;102039.22;6086928;28;20620;-66
2022/12/19 03:58:52;;;;;;;17.13;8.67;;;;;;;-1.47;84.61;102028.81;6077299;28;20297;-67
2022/12/19 04:02:16;;;;;;;11.87;8.33;;;;;;;-1.36;84.44;102023.31;6078747;28;20244;-67
2022/12/19 04:05:39;;;;;;;12.27;7.30;;;;;;;-1.25;84.40;102024.81;6076454;28;20232;-66
2022/12/19 04:09:00;;;;;;;14.00;7.33;;;;;;;-1.34;84.67;102027.66;6074254;28;20236;-65
2022/12/19 04:12:26;;;;;;;11.73;6.77;;;;;;;-1.30;84.55;102020.53;6078939;28;20316;-65
2022/12/19 04:15:53;;;;;;;10.30;6.63;;;;;;;-1.29;84.93;102009.03;6078889;28;20632;-67
2022/12/19 04:19:20;;;;;;;12.17;7.63;;;;;;;-1.28;84.72;102006.38;6073596;28;20232;-68
2022/12/19 04:22:43;;;;;;;11.33;6.83;;;;;;;-1.09;84.39;101993.59;6075304;28;20316;-67
2022/12/19 04:26:06;;;;;;;7.37;5.77;;;;;;;-1.16;84.04;101979.66;6081561;28;20229;-67
2022/12/19 04:29:31;;;;;;;8.97;6.00;;;;;;;-1.20;84.67;101995.63;6073338;28;20232;-68
2022/12/19 04:32:54;;;;;;;11.07;7.50;;;;;;;-1.22;84.52;101990.38;6075182;28;20233;-67
2022/12/19 04:36:15;;;;;;;9.00;7.20;;;;;;;-1.18;84.60;101977.94;6074750;28;20236;-66
2022/12/19 04:39:36;;;;;;;19.50;10.17;;;;;;;-1.19;85.11;101977.06;6076627;28;20248;-67
2022/12/19 04:42:57;;;;;;;10.60;6.67;;;;;;;-1.16;85.35;101966.41;6073570;28;20335;-67
2022/12/19 04:46:18;;;;;;;8.77;6.87;;;;;;;-1.17;85.89;101964.66;6077587;28;20228;-67
2022/12/19 04:49:40;;;;;;;12.00;6.37;;;;;;;-1.12;85.64;101959.28;6077041;28;20506;-67
2022/12/19 04:53:01;;;;;;;8.90;6.67;;;;;;;-1.06;85.85;101935.31;6076666;28;20316;-68
2022/12/19 04:56:22;;;;;;;11.33;6.77;;;;;;;-1.03;85.61;101929.97;6081179;28;20260;-67
2022/12/19 04:59:42;;;;;;;11.43;6.63;;;;;;;-1.06;85.62;101909.72;6068180;28;20251;-67
2022/12/19 05:03:03;;;;;;;15.60;9.10;;;;;;;-1.06;86.12;101916.78;6064648;28;20611;-67
2022/12/19 05:06:26;;;;;;;7.00;6.30;;;;;;;-0.93;85.76;101912.94;6072292;28;20646;-67
2022/12/19 05:09:47;;;;;;;7.23;4.87;;;;;;;-0.93;85.45;101915.59;6077811;28;20236;-66
2022/12/19 05:13:09;;;;;;;8.30;6.20;;;;;;;-0.98;86.12;101910.41;6077248;28;20243;-67
2022/12/19 05:16:29;;;;;;;11.00;6.33;;;;;;;-0.96;86.32;101913.88;6076447;28;20256;-69
2022/12/19 05:19:50;;;;;;;11.33;6.63;;;;;;;-0.89;86.64;101910.19;6071517;28;20619;-68
2022/12/19 05:23:13;;;;;;;11.13;5.77;;;;;;;-0.86;86.54;101898.66;6076556;28;20240;-68
2022/12/19 05:26:34;;;;;;;11.30;6.13;;;;;;;-0.85;86.92;101884.50;6076904;28;20233;-67
2022/12/19 05:29:55;;;;;;;8.87;6.10;;;;;;;-0.85;87.46;101885.38;6074805;28;20618;-67
2022/12/19 05:33:16;;;;;;;11.10;7.23;;;;;;;-0.84;87.74;101887.16;6074033;28;20646;-67
2022/12/19 05:36:36;;;;;;;8.07;6.20;;;;;;;-0.80;87.88;101882.63;6051477;28;20808;-68
2022/12/19 05:39:58;;;;;;;10.93;7.03;;;;;;;-0.80;87.59;101877.34;6074154;28;20233;-67
2022/12/19 05:43:19;;;;;;;8.93;6.67;;;;;;;-0.71;87.72;101869.16;6071457;28;20228;-68
2022/12/19 05:46:40;;;;;;;10.77;6.87;;;;;;;-0.70;87.78;101868.22;6068964;28;20232;-68
2022/12/19 05:50:02;;;;;;;8.30;5.93;;;;;;;-0.58;86.84;101870.53;6078484;28;20606;-68
2022/12/19 05:53:23;;;;;;;9.93;6.97;;;;;;;-0.67;87.75;101872.59;6084443;28;20236;-67
2022/12/19 05:56:45;;;;;;;8.63;5.83;;;;;;;-0.62;87.42;101868.03;6080397;28;20232;-68
2022/12/19 06:00:07;;;;;;;10.60;6.67;;;;;;;-0.58;87.70;101865.25;6081320;28;20232;-68
2022/12/19 06:03:33;;;;;;;14.63;10.70;;;;;;;-0.46;87.60;101867.56;6065351;28;20621;-66
2022/12/19 06:06:54;;;;;;;13.23;6.97;;;;;;;-0.40;87.44;101861.25;6072799;28;20682;-66
2022/12/19 06:10:15;;;;;;;14.53;7.23;;;;;;;-0.46;87.98;101858.78;6078891;28;20235;-68
2022/12/19 06:13:38;;;;;;;11.83;6.17;;;;;;;-0.37;87.76;101846.13;6072655;28;20233;-67
2022/12/19 06:16:59;;;;;;;10.00;7.70;;;;;;;-0.24;87.73;101831.63;6075830;28;20229;-67
2022/12/19 06:20:20;;;;;;;12.80;6.07;;;;;;;-0.25;88.54;101824.56;6077034;28;20335;-66
2022/12/19 06:23:41;;;;;;;7.60;5.80;;;;;;;-0.29;88.38;101814.97;6083175;28;20240;-67
2022/12/19 06:27:02;;;;;;;10.03;6.80;;;;;;;-0.21;89.38;101820.06;6082315;28;21170;-68
2022/12/19 06:30:25;;;;;;;10.07;7.17;;;;;;;-0.22;89.49;101810.38;6072391;28;20827;-67
2022/12/19 06:33:46;;;;;;;9.03;6.67;;;;;;;-0.19;88.80;101810.31;6077116;28;20335;-67
2022/12/19 06:37:07;;;;;;;10.00;5.87;;;;;;;-0.18;89.67;101815.53;6079246;28;20227;-68
2022/12/19 06:44:05;;;;;;;13.87;6.27;;;;;;;0.03;90.48;101813.16;6064007;28;20224;-68
2022/12/19 06:47:27;;;;;;;9.63;5.73;;;;;;;-0.01;90.69;101807.09;6068438;28;20232;-68
2022/12/19 06:50:48;;;;;;;9.97;6.83;;;;;;;0.01;90.23;101797.31;6066381;28;20241;-68
2022/12/19 06:54:09;;;;;;;8.47;5.80;;;;;;;0.05;90.27;101804.25;6092347;28;20240;-68
2022/12/19 06:57:30;;;;;;;7.40;5.53;;;;;;;0.11;90.40;101803.19;6080036;28;20610;-69
2022/12/19 07:00:51;;;;;;;7.57;5.80;;;;;;;0.11;89.88;101800.53;6069974;28;20232;-69
2022/12/19 07:04:18;;;;;;;8.23;6.03;;;;;;;0.16;89.79;101803.91;6074893;28;20240;-68
2022/12/19 07:07:40;;;;;;;7.70;5.20;;;;;;;0.18;90.22;101794.13;6069590;28;20244;-67
2022/12/19 07:11:01;;;;;;;6.77;5.63;;;;;;;0.23;90.84;101792.22;6066693;28;20228;-68
2022/12/19 07:14:22;;;;;;;8.10;5.47;;;;;;;0.23;91.18;101784.25;6076943;28;20225;-68
2022/12/19 07:17:43;;;;;;;11.10;7.63;;;;;;;0.24;90.50;101778.03;6078231;28;20231;-66
2022/12/19 07:21:07;;;;;;;9.17;5.47;;;;;;;0.30;90.76;101784.00;6069345;28;20232;-67
2022/12/19 07:24:28;;;;;;;6.33;5.33;;;;;;;0.35;90.78;101790.03;6070767;28;20233;-68
2022/12/19 07:27:49;;;;;;;11.43;6.27;;;;;;;0.34;90.75;101792.72;6077625;28;20614;-66
2022/12/19 07:31:10;;;;;;;10.63;5.90;;;;;;;0.35;90.99;101789.16;6065012;28;20240;-69
2022/12/19 07:34:31;;;;;;;7.63;5.83;;;;;;;0.36;90.62;101785.59;6093190;28;20237;-68
2022/12/19 07:37:53;;;;;;;7.57;5.73;;;;;;;0.38;90.56;101783.75;6083929;28;20229;-68
2022/12/19 07:41:14;;;;;;;6.30;5.67;;;;;;;0.56;91.48;101785.81;6072323;28;20232;-67
2022/12/19 07:44:35;;;;;;;11.50;7.17;;;;;;;0.45;91.74;101783.53;6081848;28;20251;-68
2022/12/19 07:47:56;;;;;;;8.23;5.90;;;;;;;0.47;92.55;101780.81;6074696;28;20260;-70
2022/12/19 07:51:16;;;;;;;7.87;5.97;;;;;;;0.46;93.07;101782.59;6073445;28;20247;-67
2022/12/19 07:54:39;;;;;;;5.47;4.87;;;;;;;0.53;93.14;101783.25;6086425;28;23101;-67
2022/12/19 07:58:00;;;;;;;9.17;7.00;;;;;;;0.54;93.75;101782.34;6078453;28;20249;-68
2022/12/19 08:01:21;;;;;;;10.20;6.50;;;;;;;0.55;93.70;101770.81;6059188;28;20239;-68
2022/12/19 08:04:42;;;;;;;9.23;5.40;;;;;;;0.55;94.50;101776.13;6083908;28;20236;-68
2022/12/19 08:08:03;;;;;;;10.57;6.97;;;;;;;0.59;94.81;101778.63;6085384;28;20723;-68
2022/12/19 08:11:28;;;;;;;11.03;6.67;;;;;;;0.62;95.07;101782.97;6068214;28;20320;-68
2022/12/19 08:14:49;;;;;;;11.60;5.83;;;;;;;0.63;96.05;101784.69;6081779;28;20244;-65
2022/12/19 08:18:09;;;;;;;8.30;4.67;;;;;;;0.68;95.72;101780.97;6083824;28;20236;-69
2022/12/19 08:21:30;;;;;;;8.27;5.00;;;;;;;0.70;96.58;101776.47;6076769;28;20228;-67
2022/12/19 08:24:51;;;;;;;10.13;6.83;;;;;;;0.68;96.85;101766.84;6070453;28;20301;-67
2022/12/19 08:28:14;;;;;;;11.20;5.53;;;;;;;0.68;97.00;101764.19;6077288;28;20271;-66
2022/12/19 08:31:35;;;;;;;9.40;6.03;;;;;;;0.70;97.76;101757.03;6067386;28;20232;-67
2022/12/19 08:34:55;;;;;;;9.37;6.20;;;;;;;0.76;97.19;101754.16;6071097;28;20263;-68
2022/12/19 08:38:16;;;;;;;6.47;5.77;;;;;;;0.76;97.57;101739.13;6065862;28;20244;-66
2022/12/19 08:41:38;;;;;;;5.73;4.50;;;;;;;0.86;97.51;101741.44;6075559;28;20239;-67
2022/12/19 08:45:00;;;;;;;7.27;5.90;;;;;;;0.84;98.54;101738.84;6076681;28;20241;-69
2022/12/19 08:48:21;;;;;;;8.63;7.03;;;;;;;0.87;98.20;101748.50;6081273;28;20237;-68
2022/12/19 08:51:43;;;;;;;10.87;6.23;;;;;;;0.87;98.80;101746.72;6072852;28;20239;-66
2022/12/19 08:55:05;;;;;;;9.63;7.33;;;;;;;0.94;98.99;101744.72;6083303;28;20225;-68
2022/12/19 08:58:26;;;;;;;8.33;5.33;;;;;;;0.88;99.86;101731.66;6087959;28;20244;-67
2022/12/19 09:01:48;;;;;;;9.13;6.47;;;;;;;0.89;99.90;101728.94;6073651;28;20236;-68
2022/12/19 09:05:09;;;;;;;9.73;7.63;;;;;;;0.94;100.00;101732.28;6082259;28;20225;-69
2022/12/19 09:08:31;;;;;;;12.93;6.17;;;;;;;0.96;100.00;101722.47;6078675;28;20229;-68
2022/12/19 09:11:52;;;;;;;7.93;6.17;;;;;;;0.98;100.00;101725.94;6079812;28;20843;-66
2022/12/19 09:15:15;;;;;;;7.63;5.60;;;;;;;1.06;100.00;101737.19;6086087;28;20236;-67
2022/12/19 09:18:38;;;;;;;8.60;5.80;;;;;;;1.06;100.00;101725.69;6079791;28;20506;-68
2022/12/19 09:21:59;;;;;;;11.43;7.30;;;;;;;1.14;100.00;101731.59;6084727;28;20231;-66
2022/12/19 09:25:20;;;;;;;9.10;6.10;;;;;;;1.10;100.00;101736.16;6080594;28;20240;-67
2022/12/19 09:28:42;;;;;;;8.13;5.93;;;;;;;1.15;100.00;101722.72;6088207;28;20248;-68
2022/12/19 09:32:03;;;;;;;8.23;5.60;;;;;;;1.16;100.00;101711.16;6067685;28;20236;-65
2022/12/19 09:35:25;;;;;;;8.87;5.80;;;;;;;1.21;100.00;101720.66;6086410;28;20611;-67
2022/12/19 09:38:47;;;;;;;9.33;5.67;;;;;;;1.24;100.00;101707.28;6078084;28;20240;-66
2022/12/19 09:42:21;;;;;;;10.90;6.20;;;;;;;1.24;100.00;101711.72;6090935;28;20228;-65
2022/12/19 09:45:54;;;;;;;8.87;7.50;;;;;;;1.27;100.00;101712.47;6064965;28;20236;-67
2022/12/19 09:49:19;;;;;;;13.17;8.73;;;;;;;1.30;100.00;101707.06;6090929;28;20232;-67
2022/12/19 09:52:46;;;;;;;10.57;6.67;;;;;;;1.34;100.00;101700.72;6091121;28;20229;-67
2022/12/19 09:56:14;;;;;;;10.10;7.10;;;;;;;1.35;100.00;101697.16;6081713;28;20240;-69
2022/12/19 09:59:40;;;;;;;15.00;7.57;;;;;;;1.39;100.00;101697.88;6085781;28;20239;-68
2022/12/19 10:03:06;;;;;;;11.47;6.77;;;;;;;1.40;100.00;101684.53;6078374;28;20237;-68
2022/12/19 10:06:29;;;;;;;11.73;6.83;;;;;;;1.42;100.00;101681.81;6071224;28;20267;-69
2022/12/19 10:09:54;;;;;;;9.23;6.50;;;;;;;1.43;100.00;101676.47;6084176;28;20240;-70
2022/12/19 10:13:30;;;;;;;9.47;6.87;;;;;;;1.48;100.00;101673.66;6081320;28;20248;-69
2022/12/19 10:16:58;;;;;;;17.50;9.53;;;;;;;1.48;100.00;101669.16;6070197;28;20224;-67
2022/12/19 10:20:27;;;;;;;11.80;7.13;;;;;;;1.54;100.00;101663.63;6070403;28;20241;-67
2022/12/19 10:24:21;;;;;;;9.80;6.23;;;;;;;1.57;100.00;101671.47;6066712;28;20237;-66
2022/12/19 10:27:49;;;;;;;8.07;5.87;;;;;;;1.67;100.00;101660.50;6058130;28;20609;-68
2022/12/19 10:31:17;;;;;;;11.30;6.13;;;;;;;1.68;100.00;101655.13;6060815;28;20609;-68
2022/12/19 10:34:42;;;;;;;8.63;6.60;;;;;;;1.74;100.00;101669.94;6080552;28;20633;-68
2022/12/19 10:38:14;;;;;;;8.07;5.50;;;;;;;1.79;100.00;101660.00;6087348;28;20236;-68
2022/12/19 10:41:41;;;;;;;9.03;6.33;;;;;;;1.77;100.00;101653.88;6081417;28;20231;-70
2022/12/19 10:45:13;;;;;;;10.60;5.83;;;;;;;1.81;100.00;101644.88;6079825;28;20233;-66
2022/12/19 10:48:34;;;;;;;8.77;6.97;;;;;;;1.83;100.00;101641.22;6082834;28;22021;-68
2022/12/19 10:51:59;;;;;;;8.47;6.93;;;;;;;1.86;100.00;101643.75;6085104;28;20327;-68
2022/12/19 10:55:27;;;;;;;6.67;6.00;;;;;;;1.85;100.00;101631.41;6090338;28;20244;-68
2022/12/19 10:58:56;;;;;;;8.33;6.83;;;;;;;1.88;100.00;101633.06;6075921;28;20534;-68
2022/12/19 11:02:32;;;;;;;8.37;5.77;;;;;;;1.92;100.00;101632.00;6080173;28;20248;-68
2022/12/19 11:05:54;;;;;;;6.70;5.90;;;;;;;1.96;100.00;101615.84;6070220;28;20232;-67
2022/12/19 11:09:19;;;;;;;5.93;5.33;;;;;;;1.93;100.00;101616.00;6091742;28;20240;-68
2022/12/19 11:12:51;;;;;;;12.83;6.43;;;;;;;2.00;100.00;101619.25;6085313;28;20236;-68
2022/12/19 11:16:20;;;;;;;9.57;6.93;;;;;;;2.05;100.00;101614.59;6077887;28;20624;-68
2022/12/19 11:19:42;;;;;;;9.47;7.40;;;;;;;2.08;100.00;101612.69;6091901;28;20236;-68
2022/12/19 11:23:03;;;;;;;7.27;5.23;;;;;;;2.09;100.00;101598.47;6091868;28;20233;-68
2022/12/19 11:26:32;;;;;;;8.00;6.03;;;;;;;2.14;100.00;101600.94;6077348;28;20228;-67
2022/12/19 11:29:53;;;;;;;6.53;5.07;;;;;;;2.18;100.00;101592.75;6087298;28;20228;-68
2022/12/19 11:33:16;;;;;;;9.93;5.80;;;;;;;2.23;100.00;101580.09;6087854;28;20233;-67
2022/12/19 11:36:44;;;;;;;7.60;6.00;;;;;;;2.29;100.00;101592.31;6069156;28;20248;-66
2022/12/19 11:40:14;;;;;;;7.37;4.27;;;;;;;2.32;100.00;101584.16;6085076;28;20312;-67
2022/12/19 11:43:41;;;;;;;6.87;5.07;;;;;;;2.35;100.00;101584.91;6069648;28;20495;-66
2022/12/19 11:47:09;;;;;;;7.63;6.30;;;;;;;2.38;100.00;101576.78;6069745;28;20589;-67
2022/12/19 11:50:32;;;;;;;5.90;5.33;;;;;;;2.39;100.00;101573.22;6079857;28;20240;-69
2022/12/19 11:54:06;;;;;;;6.03;5.20;;;;;;;2.40;100.00;101568.72;6082805;28;20232;-69
2022/12/19 11:57:27;;;;;;;7.37;4.97;;;;;;;2.43;100.00;101557.97;6081949;28;20638;-69
2022/12/19 12:00:55;;;;;;;12.30;5.77;;;;;;;2.48;100.00;101563.09;6073510;28;21162;-69
2022/12/19 12:04:44;;;;;;;6.27;4.63;;;;;;;2.55;100.00;101554.75;6095626;28;20225;-68
2022/12/19 12:08:32;;;;;;;7.23;5.13;;;;;;;2.57;100.00;101555.53;6082264;28;20338;-68
2022/12/19 12:12:05;;;;;;;10.30;6.90;;;;;;;2.63;100.00;101557.09;6075934;28;20858;-66
2022/12/19 12:15:52;;;;;;;8.23;5.10;;;;;;;2.68;100.00;101542.63;6077362;28;20259;-65
2022/12/19 12:19:23;;;;;;;8.60;5.13;;;;;;;2.71;100.00;101542.47;6056659;29;20249;-67
2022/12/19 12:23:07;;;;;;;10.17;8.27;;;;;;;2.82;100.00;101536.66;6050135;29;20240;-69
2022/12/19 12:26:33;;;;;;;8.00;6.03;;;;;;;2.80;100.00;101533.19;6063797;28;20239;-69
2022/12/19 12:30:02;;;;;;;7.53;6.53;;;;;;;2.84;100.00;101529.47;6099352;28;20324;-69
2022/12/19 12:33:35;;;;;;;6.83;6.10;;;;;;;2.94;100.00;101533.44;6094130;28;20315;-68
2022/12/19 12:37:08;;;;;;;6.40;5.07;;;;;;;2.98;100.00;101530.53;6092581;28;20642;-68
2022/12/19 12:40:50;;;;;;;8.77;6.03;;;;;;;3.02;100.00;101529.50;6090978;28;20248;-67
2022/12/19 12:44:12;;;;;;;10.50;6.93;;;;;;;3.08;100.00;101529.19;6085368;28;20225;-68
2022/12/19 12:47:35;;;;;;;19.43;8.07;;;;;;;3.15;100.00;101524.44;6079744;28;20240;-65
2022/12/19 12:50:59;;;;;;;9.37;5.80;;;;;;;3.17;100.00;101514.59;6070169;28;20261;-69
2022/12/19 12:54:21;;;;;;;9.90;6.70;;;;;;;3.17;100.00;101517.25;6081247;28;20260;-69
2022/12/19 12:57:42;;;;;;;6.60;6.00;;;;;;;3.17;100.00;101509.25;6082922;28;20240;-69
2022/12/19 13:01:08;;;;;;;5.60;4.70;;;;;;;3.26;100.00;101506.13;6079897;28;20255;-68
2022/12/19 13:04:33;;;;;;;8.60;6.20;;;;;;;3.29;100.00;101502.44;6102211;28;20232;-67
2022/12/19 13:07:55;;;;;;;7.20;4.90;;;;;;;3.35;100.00;101499.50;6082547;28;20231;-68
2022/12/19 13:15:44;;;;;;;7.33;5.90;;;;;;;3.48;100.00;101495.28;6076771;29;20225;-68
2022/12/19 13:19:14;;;;;;;8.03;5.10;;;;;;;3.50;100.00;101494.28;6083474;28;20224;-68
2022/12/19 13:22:42;;;;;;;10.33;5.13;;;;;;;3.58;100.00;101489.44;6085120;28;22102;-68
2022/12/19 13:26:03;;;;;;;9.83;6.17;;;;;;;3.65;100.00;101496.16;6076172;28;20237;-69
2022/12/19 13:29:33;;;;;;;7.67;5.80;;;;;;;3.61;100.00;101496.41;6092717;28;20248;-70
2022/12/19 13:33:09;;;;;;;7.87;5.57;;;;;;;3.67;100.00;101490.78;6082295;28;20243;-67
2022/12/19 13:36:53;;;;;;;9.33;6.03;;;;;;;3.74;100.00;101485.03;6077718;28;20236;-68
2022/12/19 13:40:24;;;;;;;10.70;6.67;;;;;;;3.82;100.00;101480.16;6083773;28;20241;-68
2022/12/19 13:43:48;;;;;;;8.27;5.23;;;;;;;3.91;100.00;101474.38;6086631;28;20232;-69
2022/12/19 13:47:13;;;;;;;7.93;4.97;;;;;;;3.88;100.00;101495.84;6047250;28;1048704;-68
2022/12/19 13:50:37;;;;;;;6.47;5.87;;;;;;;3.95;100.00;101485.72;6086709;28;20232;-67
2022/12/19 13:53:58;;;;;;;7.30;6.40;;;;;;;3.91;100.00;101490.38;6082563;28;20331;-67
2022/12/19 13:57:26;;;;;;;11.03;6.30;;;;;;;3.98;100.00;101488.25;6089040;28;20252;-68
2022/12/19 14:00:47;;;;;;;9.83;5.87;;;;;;;4.07;100.00;101492.25;6074012;28;20232;-68
2022/12/19 14:04:11;;;;;;;7.13;5.37;;;;;;;4.15;100.00;101487.38;6097806;28;20233;-68
2022/12/19 14:07:37;;;;;;;7.60;6.13;;;;;;;4.40;100.00;101479.78;6068447;28;20227;-69
2022/12/19 14:10:59;;;;;;;8.00;4.83;;;;;;;4.32;100.00;101479.34;6075898;28;20416;-69
2022/12/19 14:18:01;;;;;;;7.73;5.57;;;;;;;4.41;100.00;101477.03;6082009;28;20746;-70
2022/12/19 14:21:25;;;;;;;5.60;4.83;;;;;;;4.48;100.00;101466.91;6081277;28;20239;-66
2022/12/19 14:24:53;;;;;;;7.37;6.67;;;;;;;4.52;100.00;101468.44;6095243;28;20316;-67
2022/12/19 14:28:19;;;;;;;9.13;6.33;;;;;;;4.72;100.00;101469.09;6095085;28;20231;-66
2022/12/19 14:31:42;;;;;;;7.40;6.40;;;;;;;4.90;100.00;101466.34;6088303;28;20340;-67
2022/12/19 14:35:09;;;;;;;8.47;6.53;;;;;;;5.09;100.00;101465.19;6084750;28;20245;-66
2022/12/19 14:38:33;;;;;;;10.20;6.70;;;;;;;5.11;100.00;101467.81;6083542;28;20233;-68
2022/12/19 14:45:41;;;;;;;8.17;6.10;;;;;;;5.88;100.00;101480.19;6075618;28;20514;-69
2022/12/19 14:49:24;;;;;;;8.73;7.23;;;;;;;6.08;100.00;101482.53;6084124;28;20237;-65
2022/12/19 14:52:45;;;;;;;7.93;6.50;;;;;;;6.11;100.00;101473.47;6087388;28;20326;-67
2022/12/19 14:56:10;;;;;;;9.07;7.37;;;;;;;5.86;100.00;101476.72;6072918;28;20314;-67
2022/12/19 14:59:34;;;;;;;10.13;6.23;;;;;;;6.12;100.00;101480.50;6084300;28;21950;-69
2022/12/19 15:02:57;;;;;;;7.80;5.57;;;;;;;6.23;100.00;101465.53;6067135;28;20240;-67
2022/12/19 15:06:23;;;;;;;7.40;6.70;;;;;;;6.14;100.00;101466.09;6065744;28;20581;-68
2022/12/19 15:09:55;;;;;;;8.27;6.23;;;;;;;6.15;100.00;101454.41;6086881;28;20332;-68
2022/12/19 15:13:26;;;;;;;9.30;7.23;;;;;;;6.31;100.00;101457.03;6085204;28;20256;-68
2022/12/19 15:16:47;;;;;;;8.03;6.27;;;;;;;6.26;100.00;101459.97;6076066;28;20701;-68
2022/12/19 15:20:10;;;;;;;8.10;6.97;;;;;;;6.14;100.00;101458.06;6088024;28;20253;-68
2022/12/19 15:23:32;;;;;;;8.53;7.10;;;;;;;6.13;100.00;101456.31;6086693;28;20228;-68
2022/12/19 15:26:53;;;;;;;9.80;7.00;;;;;;;6.07;100.00;101453.19;6085447;28;20860;-68
2022/12/19 15:30:17;;;;;;;7.07;6.33;;;;;;;6.17;100.00;101451.66;6087402;28;20961;-69
2022/12/19 15:33:38;;;;;;;11.03;9.17;;;;;;;6.12;100.00;101454.63;6076513;28;20236;-68
2022/12/19 15:36:59;;;;;;;9.97;9.07;;;;;;;6.06;100.00;101455.00;6070756;28;20236;-68
2022/12/19 15:40:21;;;;;;;10.03;6.73;;;;;;;6.14;100.00;101442.00;6065805;28;22284;-68
2022/12/19 15:43:43;;;;;;;12.57;6.60;;;;;;;6.12;100.00;101445.72;6073777;28;20233;-69
2022/12/19 15:47:06;;;;;;;12.20;6.40;;;;;;;6.20;100.00;101438.94;6075010;28;21033;-68
2022/12/19 15:50:31;;;;;;;7.20;6.27;;;;;;;6.21;100.00;101432.66;6074854;28;20550;-69
2022/12/19 15:53:51;;;;;;;10.33;7.20;;;;;;;6.18;100.00;101440.84;6089015;28;20240;-69
2022/12/19 15:57:24;;;;;;;9.67;6.43;;;;;;;6.14;100.00;101425.94;6093448;28;20311;-69
2022/12/19 16:00:50;;;;;;;7.73;6.33;;;;;;;6.33;100.00;101406.91;6075436;28;20237;-68
2022/12/19 16:04:12;;;;;;;6.13;5.37;;;;;;;6.24;100.00;101400.31;6094243;28;20232;-68